Time;durP1;ratioP1;P1;durP2;ratioP2;P2;SDS_P1;SDS_P2;PMS_P1;PMS_P2;Temp;Humidity;BMP_temperature;BMP_pressure;BME280_temperature;BME280_humidity;BME280_pressure;Samples;Min_cycle;Max_cycle;Signal;HPM_P1;HPM_P2
2023/03/17 00:06:43;;;;;;;67.32;4.70;;;8.90;1.00;;;;;;5007451;28;20215;-86
2023/03/17 00:09:46;;;;;;;66.70;5.90;;;8.90;1.00;;;;;;5043720;28;20230;-87
2023/03/17 00:13:13;;;;;;;66.07;4.63;;;8.90;1.00;;;;;;5024030;28;20206;-87
2023/03/17 00:19:32;;;;;;;66.72;5.15;;;8.90;1.00;;;;;;5020588;28;20293;-87
2023/03/17 00:26:15;;;;;;;65.82;4.55;;;8.90;1.00;;;;;;5056511;28;20207;-87
2023/03/17 00:37:15;;;;;;;;;;;;;;;;;;;;;
2023/03/17 00:40:35;;;;;;;70.03;4.95;;;8.80;1.00;;;;;;4905315;29;20626;-87
2023/03/17 00:43:16;;;;;;;66.45;5.18;;;8.70;1.00;;;;;;4880540;29;20275;-87
2023/03/17 00:50:28;;;;;;;;;;;;;;;;;;;;;
2023/03/17 00:57:09;;;;;;;69.40;5.03;;;8.60;1.00;;;;;;4924820;29;20180;-87
2023/03/17 01:14:35;;;;;;;66.07;4.90;;;8.60;1.00;;;;;;4942218;29;20200;-86
2023/03/17 01:17:51;;;;;;;66.78;5.22;;;8.60;1.00;;;;;;4939026;28;20557;-87
2023/03/17 01:20:38;;;;;;;66.75;5.03;;;8.60;1.00;;;;;;4977571;28;20183;-87
2023/03/17 01:23:10;;;;;;;66.72;5.40;;;8.60;1.00;;;;;;5045063;28;20196;-87
2023/03/17 01:26:35;;;;;;;66.35;5.78;;;8.50;1.00;;;;;;5044509;28;20218;-86
2023/03/17 01:29:22;;;;;;;66.50;5.18;;;8.60;1.00;;;;;;5035335;28;20687;-87
2023/03/17 01:31:57;;;;;;;66.70;5.82;;;8.50;1.00;;;;;;5062142;28;20237;-87
2023/03/17 01:34:34;;;;;;;69.68;5.80;;;8.50;1.50;;;;;;5062028;28;20164;-88
2023/03/17 01:40:49;;;;;;;68.18;6.05;;;8.50;2.50;;;;;;5050451;28;20655;-87
2023/03/17 01:43:40;;;;;;;67.68;5.55;;;8.40;4.30;;;;;;5074250;23;20220;-87
2023/03/17 01:46:48;;;;;;;70.00;5.80;;;8.30;5.50;;;;;;5013759;28;20201;-87
2023/03/17 01:52:54;;;;;;;71.10;6.10;;;8.20;10.40;;;;;;5020194;28;20190;-87
2023/03/17 01:56:18;;;;;;;67.57;5.78;;;8.20;12.80;;;;;;5021080;28;20154;-87
2023/03/17 01:59:54;;;;;;;;;;;;;;;;;;;;;
2023/03/17 02:03:05;;;;;;;66.57;6.35;;;8.00;17.20;;;;;;4982236;28;20346;-87
2023/03/17 02:06:26;;;;;;;69.10;6.13;;;8.00;19.30;;;;;;4956713;28;20614;-87
2023/03/17 02:12:44;;;;;;;;;;;;;;;;;;;;;
2023/03/17 02:16:02;;;;;;;70.47;6.25;;;7.90;20.60;;;;;;4962675;29;20335;-87
2023/03/17 02:19:10;;;;;;;67.75;6.53;;;7.90;20.90;;;;;;4974335;28;20181;-87
2023/03/17 02:22:05;;;;;;;67.55;6.32;;;7.90;21.00;;;;;;4980419;28;20198;-87
2023/03/17 02:32:12;;;;;;;66.75;6.10;;;7.80;24.30;;;;;;4965591;28;20172;-86
2023/03/17 02:34:50;;;;;;;67.57;6.82;;;7.80;24.70;;;;;;4979820;28;20295;-87
2023/03/17 02:37:42;;;;;;;68.90;7.35;;;7.70;26.10;;;;;;4977347;28;20171;-87
2023/03/17 02:43:55;;;;;;;;;;;;;;;;;;;;;
2023/03/17 02:46:37;;;;;;;68.05;6.38;;;7.70;29.20;;;;;;5012530;28;20276;-87
2023/03/17 02:49:11;;;;;;;70.25;5.38;;;7.60;30.10;;;;;;5008531;28;20186;-87
2023/03/17 02:52:13;;;;;;;67.35;5.68;;;7.60;29.40;;;;;;5024960;28;20169;-88
2023/03/17 02:58:05;;;;;;;;;;;;;;;;;;;;;
2023/03/17 03:04:21;;;;;;;67.60;5.47;;;7.40;35.20;;;;;;4996926;28;20195;-87
2023/03/17 03:07:51;;;;;;;67.90;6.28;;;7.40;34.00;;;;;;4998486;28;20616;-88
2023/03/17 03:10:53;;;;;;;67.95;5.78;;;7.50;33.30;;;;;;4983439;28;20178;-87
2023/03/17 03:13:35;;;;;;;66.72;5.50;;;7.40;31.90;;;;;;4982860;28;20286;-88
2023/03/17 03:16:24;;;;;;;68.22;5.10;;;7.50;30.40;;;;;;4998712;28;20174;-87
2023/03/17 03:19:37;;;;;;;;;;;;;;;;;;;;;
2023/03/17 03:25:10;;;;;;;68.45;6.72;;;7.40;32.70;;;;;;4985060;28;20237;-87
2023/03/17 03:28:00;;;;;;;66.40;5.57;;;7.40;30.60;;;;;;5023901;28;20551;-86
2023/03/17 03:30:39;;;;;;;68.65;6.30;;;7.40;30.00;;;;;;5026192;28;20624;-87
2023/03/17 03:33:49;;;;;;;67.65;5.70;;;7.40;30.80;;;;;;5027352;28;20199;-87
2023/03/17 03:36:24;;;;;;;69.40;6.32;;;7.40;29.70;;;;;;5026680;28;20517;-87
2023/03/17 03:39:13;;;;;;;67.25;6.43;;;7.40;31.20;;;;;;5025471;28;20550;-87
2023/03/17 03:41:54;;;;;;;66.68;6.47;;;7.30;33.80;;;;;;4984059;28;20179;-88
2023/03/17 03:44:55;;;;;;;67.68;7.30;;;7.30;36.50;;;;;;4986414;28;20589;-87
2023/03/17 03:47:27;;;;;;;66.53;5.95;;;7.30;38.70;;;;;;5022735;28;20185;-87
2023/03/17 03:50:01;;;;;;;67.80;5.18;;;7.20;39.50;;;;;;5027533;28;20161;-88
2023/03/17 03:52:27;;;;;;;68.85;7.10;;;7.20;38.80;;;;;;5026679;28;20242;-88
2023/03/17 03:55:23;;;;;;;68.63;6.80;;;7.20;37.70;;;;;;5043844;28;20244;-87
2023/03/17 04:01:00;;;;;;;67.25;5.68;;;7.20;41.20;;;;;;5046058;28;20172;-87
2023/03/17 04:03:35;;;;;;;66.60;5.85;;;7.10;42.60;;;;;;5025248;28;20197;-87
2023/03/17 04:06:26;;;;;;;;;;;;;;;;;;;;;
2023/03/17 04:09:22;;;;;;;66.97;6.38;;;7.10;44.70;;;;;;5042980;28;20716;-87
2023/03/17 04:12:08;;;;;;;68.43;7.47;;;7.20;42.20;;;;;;5024706;28;20256;-87
2023/03/17 04:14:45;;;;;;;68.22;6.35;;;7.20;42.20;;;;;;5043957;28;20172;-87
2023/03/17 04:17:37;;;;;;;72.07;6.25;;;7.10;40.60;;;;;;5059273;28;20176;-87
2023/03/17 04:20:16;;;;;;;;;;;;;;;;;;;;;
2023/03/17 04:22:52;;;;;;;68.75;6.85;;;7.10;40.30;;;;;;5033623;22;20311;-87
2023/03/17 04:25:42;;;;;;;68.45;7.20;;;7.20;39.00;;;;;;5040893;28;20219;-87
2023/03/17 04:28:28;;;;;;;68.28;7.03;;;7.20;40.70;;;;;;5033785;28;20177;-87
2023/03/17 04:31:14;;;;;;;68.03;6.88;;;7.20;39.20;;;;;;5042143;28;20513;-87
2023/03/17 04:34:26;;;;;;;68.35;7.30;;;7.20;39.10;;;;;;5034857;28;20261;-87
2023/03/17 04:37:25;;;;;;;68.40;6.95;;;7.10;39.50;;;;;;4942260;29;20212;-87
2023/03/17 04:40:01;;;;;;;68.85;6.93;;;7.10;41.30;;;;;;4866792;29;20192;-87
2023/03/17 04:42:49;;;;;;;70.47;6.80;;;7.00;41.40;;;;;;4867800;29;20250;-87
2023/03/17 04:45:30;;;;;;;68.72;7.85;;;7.10;42.40;;;;;;4908854;29;20215;-87
2023/03/17 04:48:15;;;;;;;67.70;6.53;;;7.10;42.10;;;;;;4996936;28;20548;-87
2023/03/17 04:51:25;;;;;;;69.63;7.03;;;7.00;43.40;;;;;;5036832;28;20169;-87
2023/03/17 04:54:05;;;;;;;67.53;7.00;;;7.00;43.70;;;;;;4999128;28;20191;-87
2023/03/17 04:56:46;;;;;;;67.40;6.30;;;7.00;42.40;;;;;;4983260;28;20186;-87
2023/03/17 04:59:21;;;;;;;68.55;6.78;;;7.00;42.90;;;;;;5038226;28;20276;-87
2023/03/17 05:01:56;;;;;;;66.90;6.57;;;7.10;42.70;;;;;;5041597;28;20164;-87
2023/03/17 05:04:31;;;;;;;72.25;6.47;;;7.00;42.00;;;;;;5041736;28;20180;-87
2023/03/17 05:07:30;;;;;;;68.78;5.97;;;7.10;41.10;;;;;;5040204;28;20264;-87
2023/03/17 05:10:42;;;;;;;68.32;6.88;;;7.00;41.80;;;;;;4975138;28;20190;-87
2023/03/17 05:13:23;;;;;;;70.45;6.68;;;7.10;43.90;;;;;;5042289;28;20185;-88
2023/03/17 05:16:02;;;;;;;67.45;6.60;;;7.10;44.10;;;;;;5037635;28;20223;-87
2023/03/17 05:18:54;;;;;;;66.95;5.97;;;7.10;44.50;;;;;;5042526;28;20153;-87
2023/03/17 05:21:46;;;;;;;67.93;5.70;;;7.10;43.10;;;;;;5020027;28;20189;-87
2023/03/17 05:24:42;;;;;;;66.07;6.40;;;7.00;44.80;;;;;;4356703;28;17760863;-87
2023/03/17 05:27:57;;;;;;;66.88;5.82;;;7.00;46.50;;;;;;5058016;28;20709;-87
2023/03/17 05:31:15;;;;;;;70.03;6.75;;;7.00;45.20;;;;;;4980356;28;20253;-87
2023/03/17 05:37:09;;;;;;;71.97;7.40;;;7.00;49.60;;;;;;5018352;28;20178;-87
2023/03/17 05:51:18;;;;;;;68.18;7.35;;;7.00;47.20;;;;;;4948485;26;20215;-87
2023/03/17 05:54:06;;;;;;;70.57;6.47;;;7.10;45.10;;;;;;5048243;28;20196;-87
2023/03/17 05:56:41;;;;;;;70.97;6.07;;;7.10;46.10;;;;;;5053156;28;20200;-87
2023/03/17 05:59:24;;;;;;;68.15;6.68;;;7.00;46.00;;;;;;5060202;28;20701;-87
2023/03/17 06:02:01;;;;;;;67.70;7.10;;;7.00;45.70;;;;;;5058879;28;20157;-87
2023/03/17 06:04:45;;;;;;;69.28;6.50;;;7.00;46.20;;;;;;5061860;28;20539;-87
2023/03/17 06:11:20;;;;;;;72.40;7.93;;;7.10;43.90;;;;;;5058614;28;20303;-87
2023/03/17 06:13:56;;;;;;;69.68;7.03;;;7.10;47.40;;;;;;5056770;28;20602;-87
2023/03/17 06:16:29;;;;;;;68.82;6.45;;;7.20;45.40;;;;;;5061655;28;20145;-87
2023/03/17 06:19:17;;;;;;;68.45;6.35;;;7.20;45.10;;;;;;5059223;28;20172;-87
2023/03/17 06:21:55;;;;;;;67.90;5.75;;;7.20;45.40;;;;;;5059591;28;20179;-87
2023/03/17 06:24:26;;;;;;;67.75;6.45;;;7.30;44.50;;;;;;5063141;28;20153;-86
2023/03/17 06:30:26;;;;;;;;;;;;;;;;;;;;;
2023/03/17 06:35:47;;;;;;;73.32;6.53;;;7.40;36.60;;;;;;5059034;28;20180;-87
2023/03/17 06:38:31;;;;;;;67.88;6.25;;;7.50;32.50;;;;;;5055010;28;20187;-88
2023/03/17 06:41:33;;;;;;;71.88;7.03;;;7.50;31.60;;;;;;5060935;28;20248;-87
2023/03/17 06:44:51;;;;;;;66.82;6.00;;;7.60;29.70;;;;;;5059461;28;20196;-87
2023/03/17 06:47:42;;;;;;;69.68;6.32;;;7.60;30.00;;;;;;5027125;28;20183;-87
2023/03/17 06:52:58;;;;;;;66.68;5.97;;;7.70;29.30;;;;;;5046424;28;20227;-86
2023/03/17 06:55:36;;;;;;;67.18;5.82;;;7.80;28.50;;;;;;5056787;28;20194;-86
2023/03/17 06:58:05;;;;;;;68.57;6.93;;;7.80;29.30;;;;;;5048231;28;20175;-87
2023/03/17 07:00:44;;;;;;;69.13;7.25;;;7.80;29.10;;;;;;5056566;28;20203;-86
2023/03/17 07:03:12;;;;;;;68.70;5.85;;;7.90;28.70;;;;;;5063968;28;20192;-87
2023/03/17 07:05:41;;;;;;;68.25;5.97;;;7.90;28.20;;;;;;5065249;28;20259;-86
2023/03/17 07:08:22;;;;;;;67.75;6.05;;;7.90;24.90;;;;;;5066663;28;20169;-87
2023/03/17 07:10:48;;;;;;;66.68;5.40;;;7.90;27.00;;;;;;5061440;28;20246;-87
2023/03/17 07:13:18;;;;;;;69.07;6.90;;;8.00;26.50;;;;;;5062340;28;20648;-86
2023/03/17 07:15:48;;;;;;;72.70;6.07;;;8.00;25.30;;;;;;5056727;28;20415;-87
2023/03/17 07:18:17;;;;;;;67.85;6.03;;;8.00;24.20;;;;;;5054838;28;20168;-87
2023/03/17 07:20:46;;;;;;;68.38;5.57;;;8.10;25.60;;;;;;5061610;28;20195;-87
2023/03/17 07:23:21;;;;;;;67.68;5.97;;;8.10;25.00;;;;;;5051654;28;20674;-87
2023/03/17 07:25:50;;;;;;;68.47;5.90;;;8.10;22.20;;;;;;5059506;28;20194;-86
2023/03/17 07:29:00;;;;;;;69.00;7.65;;;8.20;23.10;;;;;;5053977;28;20177;-87
2023/03/17 07:31:09;;;;;;;71.80;7.15;;;8.20;21.80;;;;;;5056426;28;20563;-87
2023/03/17 07:33:38;;;;;;;68.38;6.32;;;8.30;21.30;;;;;;5057567;28;20188;-86
2023/03/17 07:36:07;;;;;;;66.70;5.63;;;8.40;20.30;;;;;;5040791;28;20176;-86
2023/03/17 07:38:33;;;;;;;69.57;6.72;;;8.50;19.80;;;;;;5060702;28;20642;-87
2023/03/17 07:40:59;;;;;;;68.38;7.30;;;8.50;18.30;;;;;;5066518;28;20198;-87
2023/03/17 07:43:27;;;;;;;69.00;6.27;;;8.60;20.50;;;;;;5067285;28;20188;-87
2023/03/17 07:45:53;;;;;;;74.07;5.95;;;8.80;19.10;;;;;;5066872;28;20510;-87
2023/03/17 07:48:35;;;;;;;71.13;6.17;;;8.90;17.10;;;;;;5060829;28;20173;-87
2023/03/17 07:51:04;;;;;;;67.53;6.45;;;9.00;16.10;;;;;;5062059;28;20509;-86
2023/03/17 07:53:30;;;;;;;68.55;6.50;;;9.10;15.40;;;;;;5065867;28;20555;-87
2023/03/17 07:55:58;;;;;;;75.82;9.18;;;9.20;14.50;;;;;;5065246;28;20171;-87
2023/03/17 07:58:25;;;;;;;66.15;6.25;;;9.30;11.90;;;;;;5057662;28;20233;-87
2023/03/17 08:00:51;;;;;;;68.22;5.85;;;9.40;10.80;;;;;;5063896;28;20248;-87
2023/03/17 08:03:18;;;;;;;67.80;5.70;;;9.50;10.40;;;;;;5057492;28;20208;-87
2023/03/17 08:05:47;;;;;;;68.75;6.05;;;9.60;8.60;;;;;;5063945;28;20442;-87
2023/03/17 08:08:14;;;;;;;68.53;6.35;;;9.60;7.40;;;;;;5056392;28;20169;-87
2023/03/17 08:10:40;;;;;;;68.50;6.75;;;9.70;8.10;;;;;;5061202;28;20149;-87
2023/03/17 08:13:06;;;;;;;67.85;6.35;;;9.60;6.50;;;;;;5053643;28;20188;-87
2023/03/17 08:15:40;;;;;;;67.65;5.40;;;9.70;6.40;;;;;;5063458;28;20165;-88
2023/03/17 08:18:06;;;;;;;71.55;6.30;;;9.80;4.90;;;;;;5045983;28;20161;-87
2023/03/17 08:20:35;;;;;;;68.88;6.88;;;9.80;4.20;;;;;;5063079;28;20164;-87
2023/03/17 08:23:04;;;;;;;68.18;5.80;;;9.90;5.60;;;;;;5063457;28;20224;-87
2023/03/17 08:25:32;;;;;;;68.57;6.18;;;10.00;1.50;;;;;;5061946;28;20210;-86
2023/03/17 08:27:58;;;;;;;67.68;6.28;;;10.20;1.10;;;;;;5061790;28;20172;-87
2023/03/17 08:30:24;;;;;;;67.60;5.27;;;10.20;1.00;;;;;;5056893;28;20175;-87
2023/03/17 08:32:51;;;;;;;67.10;5.93;;;10.30;1.00;;;;;;5060209;28;20840;-87
2023/03/17 08:35:19;;;;;;;71.95;7.05;;;10.50;1.00;;;;;;5054019;28;20439;-87
2023/03/17 08:37:46;;;;;;;68.97;6.15;;;10.70;1.00;;;;;;5060864;28;20217;-87
2023/03/17 08:40:15;;;;;;;69.80;6.32;;;10.80;1.00;;;;;;5054247;28;20171;-87
2023/03/17 08:42:43;;;;;;;67.88;6.85;;;11.00;1.00;;;;;;5060792;28;20189;-87
2023/03/17 08:45:10;;;;;;;67.30;5.82;;;11.30;1.00;;;;;;5055502;28;20219;-87
2023/03/17 08:47:37;;;;;;;66.20;5.18;;;11.40;1.00;;;;;;5059531;28;20551;-86
2023/03/17 08:50:08;;;;;;;69.75;5.18;;;11.50;1.00;;;;;;5052697;28;20604;-87
2023/03/17 08:52:35;;;;;;;67.80;4.43;;;11.60;1.00;;;;;;5063549;28;20590;-87
2023/03/17 08:55:01;;;;;;;68.65;4.82;;;11.50;1.00;;;;;;5060479;28;20199;-87
2023/03/17 08:57:33;;;;;;;68.40;5.45;;;11.50;1.00;;;;;;5062161;28;20164;-87
2023/03/17 08:59:59;;;;;;;66.72;4.60;;;11.50;1.00;;;;;;5060493;28;20157;-87
2023/03/17 09:02:25;;;;;;;65.87;4.67;;;11.40;1.00;;;;;;5058323;28;20690;-86
2023/03/17 09:04:53;;;;;;;66.90;4.78;;;11.50;1.00;;;;;;5064114;28;20497;-87
2023/03/17 09:07:19;;;;;;;66.70;4.40;;;11.50;1.00;;;;;;5065543;28;20173;-87
2023/03/17 09:09:55;;;;;;;68.90;5.43;;;11.50;1.00;;;;;;5062133;28;20160;-87
2023/03/17 09:12:48;;;;;;;67.20;4.97;;;11.60;1.00;;;;;;5059107;28;20442;-87
2023/03/17 09:15:43;;;;;;;66.57;4.68;;;11.60;1.00;;;;;;5063365;28;20176;-87
2023/03/17 09:18:19;;;;;;;66.25;5.35;;;11.70;1.00;;;;;;5057358;28;20171;-87
2023/03/17 09:25:04;;;;;;;70.25;6.20;;;11.70;1.00;;;;;;5040616;28;20185;-87
2023/03/17 09:27:39;;;;;;;66.55;4.70;;;11.80;1.00;;;;;;5059326;28;20190;-87
2023/03/17 09:30:06;;;;;;;66.65;5.03;;;12.00;1.00;;;;;;5068643;28;20152;-87
2023/03/17 09:32:31;;;;;;;68.35;4.80;;;12.00;1.00;;;;;;5069558;28;20276;-87
2023/03/17 09:34:57;;;;;;;72.20;4.17;;;12.10;1.00;;;;;;5067688;28;20168;-88
2023/03/17 09:37:28;;;;;;;68.80;7.30;;;12.10;1.00;;;;;;5067850;28;20635;-87
2023/03/17 09:39:56;;;;;;;68.72;4.05;;;12.20;1.00;;;;;;5061829;28;20173;-87
2023/03/17 09:43:00;;;;;;;66.57;4.32;;;12.30;1.00;;;;;;5058013;28;20189;-87
2023/03/17 09:45:36;;;;;;;71.78;4.85;;;12.30;1.00;;;;;;5064488;28;20211;-87
2023/03/17 09:48:03;;;;;;;66.78;4.32;;;12.30;1.00;;;;;;5064065;28;20164;-87
2023/03/17 09:50:57;;;;;;;66.80;4.35;;;12.50;1.00;;;;;;5063331;28;20279;-87
2023/03/17 09:53:48;;;;;;;67.18;4.35;;;12.50;1.00;;;;;;5065074;28;20191;-87
2023/03/17 09:56:16;;;;;;;64.50;3.88;;;12.40;1.00;;;;;;5066761;28;20183;-87
2023/03/17 09:59:07;;;;;;;65.85;3.95;;;12.50;1.00;;;;;;5070606;28;20196;-87
2023/03/17 10:01:34;;;;;;;67.97;4.38;;;12.50;1.00;;;;;;5064412;28;20195;-86
2023/03/17 10:04:01;;;;;;;67.13;4.45;;;12.60;1.00;;;;;;5066729;28;20244;-87
2023/03/17 10:06:41;;;;;;;69.22;5.30;;;12.70;1.00;;;;;;5065620;28;20180;-87
2023/03/17 10:09:18;;;;;;;65.43;4.45;;;12.80;1.00;;;;;;5066692;28;20160;-87
2023/03/17 10:11:53;;;;;;;66.05;4.30;;;12.90;1.00;;;;;;5063328;28;20140;-88
2023/03/17 10:14:43;;;;;;;71.15;5.28;;;12.90;1.00;;;;;;5058507;28;20160;-87
2023/03/17 10:17:12;;;;;;;67.35;4.55;;;13.10;1.00;;;;;;5063675;28;20156;-87
2023/03/17 10:19:44;;;;;;;66.97;4.60;;;13.30;1.00;;;;;;5063863;28;20168;-88
2023/03/17 10:22:43;;;;;;;70.90;5.15;;;13.50;1.00;;;;;;5064978;28;20196;-86
2023/03/17 10:25:15;;;;;;;66.20;4.20;;;13.70;1.00;;;;;;5050992;28;20295;-86
2023/03/17 10:27:51;;;;;;;66.93;4.70;;;13.60;1.00;;;;;;5068146;28;20164;-87
2023/03/17 10:30:23;;;;;;;69.90;5.37;;;13.70;1.00;;;;;;5067185;28;20171;-88
2023/03/17 10:32:51;;;;;;;66.82;4.50;;;14.00;1.00;;;;;;5062643;28;20922;-87
2023/03/17 10:35:25;;;;;;;68.28;4.85;;;14.10;1.00;;;;;;5058134;28;20172;-87
2023/03/17 10:37:50;;;;;;;71.05;5.13;;;14.00;1.00;;;;;;5065636;28;20191;-87
2023/03/17 10:40:27;;;;;;;67.03;4.60;;;14.00;1.00;;;;;;5060224;28;20172;-87
2023/03/17 10:43:06;;;;;;;65.80;3.88;;;14.00;1.00;;;;;;5067521;28;20171;-87
2023/03/17 10:45:40;;;;;;;66.15;4.13;;;14.00;1.00;;;;;;5064218;28;20195;-87
2023/03/17 10:48:38;;;;;;;67.68;3.97;;;14.10;1.00;;;;;;5064350;28;20157;-87
2023/03/17 10:51:48;;;;;;;66.75;4.53;;;14.10;1.00;;;;;;5076912;28;20211;-87
2023/03/17 10:54:50;;;;;;;68.45;4.35;;;14.20;1.00;;;;;;5060763;28;20164;-87
2023/03/17 10:57:54;;;;;;;65.57;4.40;;;14.20;1.00;;;;;;5057991;28;20235;-88
2023/03/17 11:00:38;;;;;;;69.20;4.75;;;14.10;1.00;;;;;;5057441;28;20540;-87
2023/03/17 11:03:20;;;;;;;69.00;4.40;;;13.90;1.00;;;;;;5059661;28;20188;-88
2023/03/17 11:06:03;;;;;;;67.57;4.00;;;14.00;1.00;;;;;;5060347;28;20443;-87
2023/03/17 11:09:28;;;;;;;68.68;4.07;;;14.10;1.00;;;;;;5053476;28;20213;-87
2023/03/17 11:11:46;;;;;;;74.30;5.13;;;14.20;1.00;;;;;;5058913;28;20666;-87
2023/03/17 11:14:30;;;;;;;65.83;5.00;;;14.30;1.00;;;;;;5057774;28;20426;-87
2023/03/17 11:21:07;;;;;;;72.25;4.50;;;14.50;1.00;;;;;;5037192;28;20439;-87
2023/03/17 11:24:08;;;;;;;67.57;4.67;;;14.60;1.00;;;;;;5178320;22;20216;-87
2023/03/17 11:27:20;;;;;;;65.77;3.87;;;14.60;1.00;;;;;;5020438;28;20800;-87
2023/03/17 11:30:47;;;;;;;;;;;;;;;;;;;;;
2023/03/17 11:33:45;;;;;;;67.22;4.13;;;14.50;1.00;;;;;;4960700;29;20930;-87
2023/03/17 11:37:24;;;;;;;66.80;4.63;;;14.50;1.00;;;;;;5022624;28;20170;-87
2023/03/17 11:40:13;;;;;;;68.60;4.17;;;14.70;1.00;;;;;;4962384;29;20803;-87
2023/03/17 11:42:57;;;;;;;67.60;4.17;;;14.90;1.00;;;;;;5035177;23;20838;-84
2023/03/17 11:45:48;;;;;;;67.07;4.20;;;15.00;1.00;;;;;;5061424;28;20443;-84
2023/03/17 11:48:48;;;;;;;67.40;4.03;;;15.10;1.00;;;;;;5024350;28;20427;-84
2023/03/17 11:51:44;;;;;;;66.80;3.80;;;15.30;1.00;;;;;;5061470;28;20771;-83
2023/03/17 11:54:51;;;;;;;68.10;3.60;;;15.30;1.00;;;;;;5041629;28;20818;-84
2023/03/17 11:57:32;;;;;;;72.43;3.90;;;15.50;1.00;;;;;;5042448;28;20466;-84
2023/03/17 12:00:25;;;;;;;66.53;4.17;;;15.50;1.00;;;;;;5041600;28;20466;-84
2023/03/17 12:03:11;;;;;;;66.50;4.13;;;15.40;1.00;;;;;;5042430;28;20435;-84
2023/03/17 12:05:38;;;;;;;66.40;3.93;;;15.40;1.00;;;;;;5042261;28;20783;-83
2023/03/17 12:08:38;;;;;;;67.77;3.50;;;15.30;1.00;;;;;;5041226;28;20450;-83
2023/03/17 12:11:09;;;;;;;69.17;3.70;;;15.30;1.00;;;;;;5041744;28;20799;-83
2023/03/17 12:13:56;;;;;;;65.23;3.93;;;15.30;1.00;;;;;;5041494;28;20412;-83
2023/03/17 12:16:40;;;;;;;65.93;4.13;;;15.40;1.00;;;;;;5039489;28;20400;-83
2023/03/17 12:19:21;;;;;;;66.90;3.60;;;15.50;1.00;;;;;;5040394;28;20487;-83
2023/03/17 12:21:58;;;;;;;70.10;3.57;;;15.60;1.00;;;;;;5040118;28;20403;-83
2023/03/17 12:24:42;;;;;;;66.70;3.77;;;15.50;1.00;;;;;;5039660;28;20376;-83
2023/03/17 12:27:14;;;;;;;68.00;4.17;;;15.60;1.00;;;;;;5041319;28;20808;-83
2023/03/17 12:29:51;;;;;;;67.00;3.57;;;15.70;1.00;;;;;;5039620;28;20464;-83
2023/03/17 12:32:25;;;;;;;67.13;3.43;;;15.80;1.00;;;;;;5039413;28;20427;-83
2023/03/17 12:35:27;;;;;;;65.77;3.30;;;15.90;1.00;;;;;;5041018;28;20395;-83
2023/03/17 12:37:55;;;;;;;67.07;4.13;;;15.90;1.00;;;;;;5040590;28;20379;-83
2023/03/17 12:41:02;;;;;;;66.73;3.57;;;15.90;1.00;;;;;;5054579;28;20404;-83
2023/03/17 12:44:04;;;;;;;65.70;3.57;;;15.90;1.00;;;;;;5040129;28;20508;-83
2023/03/17 12:46:47;;;;;;;68.77;3.57;;;15.80;1.00;;;;;;5039043;28;20452;-83
2023/03/17 12:49:46;;;;;;;67.77;4.10;;;15.80;1.00;;;;;;5040643;28;20426;-83
2023/03/17 12:52:31;;;;;;;67.93;3.70;;;15.90;1.00;;;;;;5040110;28;20443;-83
2023/03/17 12:55:03;;;;;;;69.23;4.00;;;16.10;1.00;;;;;;5040926;28;20423;-83
2023/03/17 12:57:40;;;;;;;66.87;3.73;;;16.10;1.00;;;;;;5040652;28;20496;-83
2023/03/17 13:00:19;;;;;;;66.33;3.70;;;16.20;1.00;;;;;;5040545;28;20420;-83
2023/03/17 13:02:49;;;;;;;65.90;3.60;;;16.30;1.00;;;;;;5055813;28;20428;-82
2023/03/17 13:05:18;;;;;;;70.30;3.80;;;16.30;1.00;;;;;;5040470;28;20432;-82
2023/03/17 13:07:59;;;;;;;70.30;3.70;;;16.40;1.00;;;;;;5040179;28;20431;-82
2023/03/17 13:10:42;;;;;;;69.00;3.40;;;16.50;1.00;;;;;;5038571;28;20466;-83
2023/03/17 13:13:08;;;;;;;67.80;4.03;;;16.40;1.00;;;;;;5039108;28;20481;-83
2023/03/17 13:15:34;;;;;;;67.90;3.53;;;16.50;1.00;;;;;;5037161;28;20835;-83
2023/03/17 13:18:15;;;;;;;68.10;4.20;;;16.60;1.00;;;;;;5037791;28;20668;-82
2023/03/17 13:20:44;;;;;;;66.80;3.80;;;16.60;1.00;;;;;;5037739;28;20446;-83
2023/03/17 13:23:10;;;;;;;66.33;3.70;;;16.60;1.00;;;;;;5038203;28;20896;-83
2023/03/17 13:25:40;;;;;;;70.90;3.77;;;16.70;1.00;;;;;;5037912;28;20456;-83
2023/03/17 13:28:12;;;;;;;67.87;3.83;;;16.70;1.00;;;;;;5036386;28;20192;-83
2023/03/17 13:30:37;;;;;;;68.10;3.90;;;16.70;1.00;;;;;;5037755;28;20399;-83
2023/03/17 13:33:10;;;;;;;73.60;3.60;;;16.70;1.00;;;;;;5036816;28;20963;-81
2023/03/17 13:35:46;;;;;;;69.90;3.30;;;16.60;1.00;;;;;;5037668;28;20249;-81
2023/03/17 13:38:24;;;;;;;65.50;3.37;;;16.60;1.00;;;;;;5036904;28;20800;-83
2023/03/17 13:41:04;;;;;;;67.73;3.77;;;16.70;1.00;;;;;;5037071;28;20419;-83
2023/03/17 13:43:51;;;;;;;66.20;3.43;;;16.60;1.00;;;;;;5037676;28;20461;-83
2023/03/17 13:46:32;;;;;;;66.50;3.50;;;16.70;1.00;;;;;;5036898;28;20807;-82
2023/03/17 13:49:22;;;;;;;66.67;3.97;;;16.70;1.00;;;;;;5037659;28;20408;-83
2023/03/17 13:52:11;;;;;;;67.10;3.50;;;16.70;1.00;;;;;;5027429;28;20419;-83
2023/03/17 13:54:58;;;;;;;67.03;3.77;;;16.60;1.00;;;;;;5037855;28;20385;-83
2023/03/17 13:57:34;;;;;;;67.87;4.30;;;16.70;1.00;;;;;;5038174;28;20387;-82
2023/03/17 14:00:06;;;;;;;72.90;4.43;;;16.70;1.00;;;;;;5038281;28;20380;-83
2023/03/17 14:02:37;;;;;;;67.50;3.30;;;16.70;1.00;;;;;;5037326;28;20436;-83
2023/03/17 14:05:17;;;;;;;69.70;3.90;;;16.80;1.00;;;;;;5035662;28;20768;-83
2023/03/17 14:08:04;;;;;;;68.10;3.57;;;16.80;1.00;;;;;;5036176;28;20393;-83
2023/03/17 14:10:32;;;;;;;67.17;3.17;;;16.80;1.00;;;;;;5037180;28;20393;-83
2023/03/17 14:13:15;;;;;;;68.53;3.83;;;16.70;1.00;;;;;;5036431;28;20859;-82
2023/03/17 14:15:55;;;;;;;73.07;3.80;;;16.60;1.00;;;;;;5035894;28;20810;-82
2023/03/17 14:18:34;;;;;;;70.47;4.77;;;16.50;1.00;;;;;;5037413;28;20372;-83
2023/03/17 14:21:04;;;;;;;68.57;4.50;;;16.50;1.00;;;;;;5037276;28;20413;-82
2023/03/17 14:23:30;;;;;;;67.20;3.37;;;16.50;1.00;;;;;;5037051;28;20943;-83
2023/03/17 14:25:57;;;;;;;67.00;3.30;;;16.50;1.00;;;;;;5036940;28;20452;-82
2023/03/17 14:28:29;;;;;;;65.63;3.40;;;16.60;1.00;;;;;;5035480;28;20403;-83
2023/03/17 14:31:03;;;;;;;67.10;4.30;;;16.40;1.00;;;;;;5052711;28;20404;-83
2023/03/17 14:33:36;;;;;;;66.23;3.40;;;16.30;1.00;;;;;;5037659;28;20441;-83
2023/03/17 14:36:06;;;;;;;66.90;3.77;;;16.30;1.00;;;;;;5037854;28;20384;-83
2023/03/17 14:38:48;;;;;;;66.27;3.50;;;16.30;1.00;;;;;;5037783;28;20464;-83
2023/03/17 14:41:14;;;;;;;68.60;4.00;;;16.30;1.00;;;;;;5038958;28;20404;-83
2023/03/17 14:43:41;;;;;;;66.40;3.97;;;16.30;1.00;;;;;;5036901;28;20460;-83
2023/03/17 14:46:30;;;;;;;67.50;3.90;;;16.30;1.00;;;;;;5037669;28;20239;-83
2023/03/17 14:49:22;;;;;;;72.00;3.83;;;16.30;1.00;;;;;;5038381;28;20412;-83
2023/03/17 14:51:52;;;;;;;67.07;3.40;;;16.50;1.00;;;;;;5031832;28;20412;-83
2023/03/17 14:54:21;;;;;;;70.50;4.07;;;16.50;1.00;;;;;;5037241;28;20483;-83
2023/03/17 14:57:03;;;;;;;67.47;3.73;;;16.40;1.00;;;;;;5038520;28;20408;-82
2023/03/17 14:59:39;;;;;;;66.07;3.47;;;16.40;1.00;;;;;;5052948;28;20400;-83
2023/03/17 15:02:24;;;;;;;70.57;3.37;;;16.20;1.00;;;;;;5037245;28;20442;-83
2023/03/17 15:05:18;;;;;;;66.10;3.20;;;16.20;1.00;;;;;;5036401;28;20409;-83
2023/03/17 15:07:44;;;;;;;69.90;3.03;;;16.20;1.00;;;;;;5029691;28;20400;-83
2023/03/17 15:10:21;;;;;;;66.67;3.57;;;16.20;1.00;;;;;;5038223;28;20411;-83
2023/03/17 15:12:47;;;;;;;67.87;3.60;;;16.30;1.00;;;;;;5036207;28;20216;-83
2023/03/17 15:15:27;;;;;;;66.00;3.10;;;16.20;1.00;;;;;;5038246;28;20411;-83
2023/03/17 15:17:59;;;;;;;68.00;3.53;;;16.20;1.00;;;;;;5037932;28;20386;-83
2023/03/17 15:20:29;;;;;;;66.43;3.30;;;16.10;1.00;;;;;;5038256;28;20407;-83
2023/03/17 15:22:57;;;;;;;66.67;3.00;;;16.00;1.00;;;;;;5038098;28;20519;-83
2023/03/17 15:25:30;;;;;;;68.87;3.50;;;16.00;1.00;;;;;;5037470;28;20452;-83
2023/03/17 15:27:56;;;;;;;67.73;3.40;;;15.90;1.00;;;;;;5037079;28;20558;-83
2023/03/17 15:30:22;;;;;;;66.87;3.43;;;15.80;1.00;;;;;;5037085;28;20408;-83
2023/03/17 15:33:01;;;;;;;66.70;3.27;;;15.80;1.00;;;;;;5035780;28;20773;-83
2023/03/17 15:35:27;;;;;;;71.40;3.13;;;15.80;1.00;;;;;;5035599;28;20411;-83
2023/03/17 15:37:54;;;;;;;71.67;3.23;;;15.70;1.00;;;;;;5038243;28;20440;-83
2023/03/17 15:40:21;;;;;;;68.00;4.10;;;15.70;1.00;;;;;;5037675;28;20407;-83
2023/03/17 15:42:46;;;;;;;64.60;3.03;;;15.70;1.00;;;;;;5037657;28;20450;-83
2023/03/17 15:45:16;;;;;;;67.40;3.40;;;15.70;1.00;;;;;;5037542;28;20451;-83
2023/03/17 15:47:43;;;;;;;66.40;3.10;;;15.70;1.00;;;;;;5037888;28;20173;-83
2023/03/17 15:50:27;;;;;;;65.70;3.50;;;15.60;1.00;;;;;;5036022;28;20773;-83
2023/03/17 15:52:54;;;;;;;64.53;3.23;;;15.60;1.00;;;;;;5036078;28;20432;-83
2023/03/17 15:55:32;;;;;;;65.50;4.40;;;15.60;1.00;;;;;;5037792;28;20408;-83
2023/03/17 15:57:59;;;;;;;66.43;3.70;;;15.50;1.00;;;;;;5038562;28;20408;-83
2023/03/17 16:00:27;;;;;;;65.13;3.40;;;15.50;1.00;;;;;;5041477;28;20927;-83
2023/03/17 16:02:56;;;;;;;66.80;3.83;;;15.40;1.00;;;;;;5041086;28;20427;-83
2023/03/17 16:05:24;;;;;;;66.70;3.27;;;15.40;1.00;;;;;;5041904;28;20447;-83
2023/03/17 16:07:51;;;;;;;65.17;3.20;;;15.40;1.00;;;;;;5041089;28;20963;-83